sensor_id;sensor_type;location;lat;lon;timestamp;P1;durP1;ratioP1;P2;durP2;ratioP2
50681;SDS011;36779;52.168;20.878;2023-12-20T00:01:13;11.00;;;5.50;;
50681;SDS011;36779;52.168;20.878;2023-12-20T00:04:00;16.30;;;6.10;;
50681;SDS011;36779;52.168;20.878;2023-12-20T00:06:57;13.30;;;6.50;;
50681;SDS011;36779;52.168;20.878;2023-12-20T00:09:38;14.90;;;6.20;;
50681;SDS011;36779;52.168;20.878;2023-12-20T00:12:28;15.70;;;7.50;;
50681;SDS011;36779;52.168;20.878;2023-12-20T00:15:11;13.60;;;5.00;;
50681;SDS011;36779;52.168;20.878;2023-12-20T00:18:01;11.50;;;5.70;;
50681;SDS011;36779;52.168;20.878;2023-12-20T00:20:53;14.40;;;6.90;;
50681;SDS011;36779;52.168;20.878;2023-12-20T00:26:55;9.50;;;4.90;;
50681;SDS011;36779;52.168;20.878;2023-12-20T00:29:47;11.00;;;4.70;;
50681;SDS011;36779;52.168;20.878;2023-12-20T00:32:38;12.50;;;5.70;;
50681;SDS011;36779;52.168;20.878;2023-12-20T00:35:37;14.30;;;6.30;;
50681;SDS011;36779;52.168;20.878;2023-12-20T00:38:28;15.30;;;6.60;;
50681;SDS011;36779;52.168;20.878;2023-12-20T00:41:17;13.50;;;6.40;;
50681;SDS011;36779;52.168;20.878;2023-12-20T00:44:07;10.10;;;5.00;;
50681;SDS011;36779;52.168;20.878;2023-12-20T00:47:02;11.80;;;5.50;;
50681;SDS011;36779;52.168;20.878;2023-12-20T00:49:55;10.00;;;5.20;;
50681;SDS011;36779;52.168;20.878;2023-12-20T00:52:51;12.20;;;5.60;;
50681;SDS011;36779;52.168;20.878;2023-12-20T00:55:46;13.30;;;5.90;;
50681;SDS011;36779;52.168;20.878;2023-12-20T00:58:46;11.90;;;5.30;;
50681;SDS011;36779;52.168;20.878;2023-12-20T01:01:42;10.10;;;5.00;;
50681;SDS011;36779;52.168;20.878;2023-12-20T01:04:31;8.40;;;4.50;;
50681;SDS011;36779;52.168;20.878;2023-12-20T01:07:28;11.80;;;5.50;;
50681;SDS011;36779;52.168;20.878;2023-12-20T01:10:24;11.60;;;5.10;;
50681;SDS011;36779;52.168;20.878;2023-12-20T01:13:36;12.10;;;5.00;;
50681;SDS011;36779;52.168;20.878;2023-12-20T01:16:28;11.20;;;5.00;;
50681;SDS011;36779;52.168;20.878;2023-12-20T01:19:42;9.90;;;5.10;;
50681;SDS011;36779;52.168;20.878;2023-12-20T01:22:33;9.70;;;4.60;;
50681;SDS011;36779;52.168;20.878;2023-12-20T01:25:25;11.20;;;5.50;;
50681;SDS011;36779;52.168;20.878;2023-12-20T01:28:08;11.40;;;5.50;;
50681;SDS011;36779;52.168;20.878;2023-12-20T01:31:00;10.60;;;5.20;;
50681;SDS011;36779;52.168;20.878;2023-12-20T01:33:33;11.40;;;4.90;;
50681;SDS011;36779;52.168;20.878;2023-12-20T01:36:26;11.50;;;5.50;;
50681;SDS011;36779;52.168;20.878;2023-12-20T01:39:17;8.30;;;4.10;;
50681;SDS011;36779;52.168;20.878;2023-12-20T01:42:16;10.10;;;4.70;;
50681;SDS011;36779;52.168;20.878;2023-12-20T01:45:14;11.10;;;4.80;;
50681;SDS011;36779;52.168;20.878;2023-12-20T01:48:04;10.40;;;4.90;;
50681;SDS011;36779;52.168;20.878;2023-12-20T01:50:59;10.40;;;3.90;;
50681;SDS011;36779;52.168;20.878;2023-12-20T01:53:41;9.70;;;4.80;;
50681;SDS011;36779;52.168;20.878;2023-12-20T01:56:33;11.70;;;5.00;;
50681;SDS011;36779;52.168;20.878;2023-12-20T01:59:23;9.40;;;4.50;;
50681;SDS011;36779;52.168;20.878;2023-12-20T02:02:22;8.70;;;3.90;;
50681;SDS011;36779;52.168;20.878;2023-12-20T02:05:17;10.50;;;4.60;;
50681;SDS011;36779;52.168;20.878;2023-12-20T02:08:29;9.60;;;4.80;;
50681;SDS011;36779;52.168;20.878;2023-12-20T02:11:20;10.20;;;4.90;;
50681;SDS011;36779;52.168;20.878;2023-12-20T02:14:17;9.50;;;4.40;;
50681;SDS011;36779;52.168;20.878;2023-12-20T02:17:03;9.20;;;5.40;;
50681;SDS011;36779;52.168;20.878;2023-12-20T02:19:58;7.90;;;4.20;;
50681;SDS011;36779;52.168;20.878;2023-12-20T02:22:49;8.30;;;4.40;;
50681;SDS011;36779;52.168;20.878;2023-12-20T02:25:39;8.50;;;4.10;;
50681;SDS011;36779;52.168;20.878;2023-12-20T02:28:31;7.80;;;4.30;;
50681;SDS011;36779;52.168;20.878;2023-12-20T02:31:22;9.40;;;4.50;;
50681;SDS011;36779;52.168;20.878;2023-12-20T02:34:16;12.30;;;4.90;;
50681;SDS011;36779;52.168;20.878;2023-12-20T02:37:06;11.20;;;5.20;;
50681;SDS011;36779;52.168;20.878;2023-12-20T02:43:06;22.00;;;8.70;;
50681;SDS011;36779;52.168;20.878;2023-12-20T02:45:57;16.10;;;6.80;;
50681;SDS011;36779;52.168;20.878;2023-12-20T02:49:03;11.20;;;5.60;;
50681;SDS011;36779;52.168;20.878;2023-12-20T02:51:57;11.70;;;5.90;;
50681;SDS011;36779;52.168;20.878;2023-12-20T02:54:40;6.80;;;4.40;;
50681;SDS011;36779;52.168;20.878;2023-12-20T02:57:29;6.90;;;3.50;;
50681;SDS011;36779;52.168;20.878;2023-12-20T03:00:13;6.70;;;3.70;;
50681;SDS011;36779;52.168;20.878;2023-12-20T03:03:09;7.60;;;3.90;;
50681;SDS011;36779;52.168;20.878;2023-12-20T03:05:58;8.60;;;3.80;;
50681;SDS011;36779;52.168;20.878;2023-12-20T03:08:44;6.00;;;3.30;;
50681;SDS011;36779;52.168;20.878;2023-12-20T03:11:29;5.40;;;3.30;;
50681;SDS011;36779;52.168;20.878;2023-12-20T03:14:19;5.30;;;3.00;;
50681;SDS011;36779;52.168;20.878;2023-12-20T03:17:03;6.30;;;3.70;;
50681;SDS011;36779;52.168;20.878;2023-12-20T03:19:44;6.50;;;3.40;;
50681;SDS011;36779;52.168;20.878;2023-12-20T03:22:33;5.10;;;2.90;;
50681;SDS011;36779;52.168;20.878;2023-12-20T03:25:29;6.10;;;3.10;;
50681;SDS011;36779;52.168;20.878;2023-12-20T03:28:30;8.60;;;3.60;;
50681;SDS011;36779;52.168;20.878;2023-12-20T03:31:20;6.40;;;3.60;;
50681;SDS011;36779;52.168;20.878;2023-12-20T03:34:09;5.20;;;2.90;;
50681;SDS011;36779;52.168;20.878;2023-12-20T03:37:01;8.30;;;3.30;;
50681;SDS011;36779;52.168;20.878;2023-12-20T03:39:52;6.60;;;2.80;;
50681;SDS011;36779;52.168;20.878;2023-12-20T03:42:44;5.80;;;3.10;;
50681;SDS011;36779;52.168;20.878;2023-12-20T03:45:34;7.30;;;3.40;;
50681;SDS011;36779;52.168;20.878;2023-12-20T03:48:26;4.60;;;2.70;;
50681;SDS011;36779;52.168;20.878;2023-12-20T03:51:20;4.20;;;2.50;;
50681;SDS011;36779;52.168;20.878;2023-12-20T03:54:12;5.50;;;2.70;;
50681;SDS011;36779;52.168;20.878;2023-12-20T03:56:51;4.30;;;2.50;;
50681;SDS011;36779;52.168;20.878;2023-12-20T03:59:41;6.60;;;3.40;;
50681;SDS011;36779;52.168;20.878;2023-12-20T04:02:31;5.20;;;2.70;;
50681;SDS011;36779;52.168;20.878;2023-12-20T04:05:22;6.00;;;2.30;;
50681;SDS011;36779;52.168;20.878;2023-12-20T04:08:13;4.10;;;2.40;;
50681;SDS011;36779;52.168;20.878;2023-12-20T04:11:05;6.50;;;3.40;;
50681;SDS011;36779;52.168;20.878;2023-12-20T04:13:57;6.50;;;3.40;;
50681;SDS011;36779;52.168;20.878;2023-12-20T04:16:48;5.90;;;2.80;;
50681;SDS011;36779;52.168;20.878;2023-12-20T04:19:39;7.30;;;3.10;;
50681;SDS011;36779;52.168;20.878;2023-12-20T04:22:33;4.60;;;2.90;;
50681;SDS011;36779;52.168;20.878;2023-12-20T04:25:23;4.80;;;3.10;;
50681;SDS011;36779;52.168;20.878;2023-12-20T04:28:16;5.50;;;2.60;;
50681;SDS011;36779;52.168;20.878;2023-12-20T04:31:06;5.90;;;3.40;;
50681;SDS011;36779;52.168;20.878;2023-12-20T04:33:57;5.00;;;3.00;;
50681;SDS011;36779;52.168;20.878;2023-12-20T04:37:09;6.50;;;3.30;;
50681;SDS011;36779;52.168;20.878;2023-12-20T04:40:02;7.10;;;3.40;;
50681;SDS011;36779;52.168;20.878;2023-12-20T04:42:59;6.40;;;3.50;;
50681;SDS011;36779;52.168;20.878;2023-12-20T04:45:49;4.90;;;3.10;;
50681;SDS011;36779;52.168;20.878;2023-12-20T04:49:07;6.10;;;3.00;;
50681;SDS011;36779;52.168;20.878;2023-12-20T04:51:49;6.50;;;3.30;;
50681;SDS011;36779;52.168;20.878;2023-12-20T04:54:41;8.20;;;3.30;;
50681;SDS011;36779;52.168;20.878;2023-12-20T04:57:35;6.60;;;3.30;;
50681;SDS011;36779;52.168;20.878;2023-12-20T05:00:25;5.90;;;3.40;;
50681;SDS011;36779;52.168;20.878;2023-12-20T05:03:19;5.80;;;3.50;;
50681;SDS011;36779;52.168;20.878;2023-12-20T05:06:11;6.20;;;3.50;;
50681;SDS011;36779;52.168;20.878;2023-12-20T05:09:06;5.50;;;3.40;;
50681;SDS011;36779;52.168;20.878;2023-12-20T05:11:59;6.00;;;3.40;;
50681;SDS011;36779;52.168;20.878;2023-12-20T05:14:55;8.60;;;3.40;;
50681;SDS011;36779;52.168;20.878;2023-12-20T05:17:50;7.50;;;3.60;;
50681;SDS011;36779;52.168;20.878;2023-12-20T05:20:40;8.00;;;3.50;;
50681;SDS011;36779;52.168;20.878;2023-12-20T05:23:40;7.20;;;3.80;;
50681;SDS011;36779;52.168;20.878;2023-12-20T05:29:36;6.20;;;3.50;;
50681;SDS011;36779;52.168;20.878;2023-12-20T05:32:26;8.70;;;3.90;;
50681;SDS011;36779;52.168;20.878;2023-12-20T05:35:18;8.00;;;4.30;;
50681;SDS011;36779;52.168;20.878;2023-12-20T05:38:15;7.20;;;4.30;;
50681;SDS011;36779;52.168;20.878;2023-12-20T05:41:07;8.10;;;4.30;;
50681;SDS011;36779;52.168;20.878;2023-12-20T05:43:59;8.10;;;4.20;;
50681;SDS011;36779;52.168;20.878;2023-12-20T05:46:53;9.50;;;3.60;;
50681;SDS011;36779;52.168;20.878;2023-12-20T05:49:43;8.90;;;4.10;;
50681;SDS011;36779;52.168;20.878;2023-12-20T05:52:34;15.00;;;5.50;;
50681;SDS011;36779;52.168;20.878;2023-12-20T05:55:25;27.70;;;11.10;;
50681;SDS011;36779;52.168;20.878;2023-12-20T05:58:16;10.50;;;5.40;;
50681;SDS011;36779;52.168;20.878;2023-12-20T06:01:06;31.50;;;12.00;;
50681;SDS011;36779;52.168;20.878;2023-12-20T06:03:48;37.00;;;12.40;;
50681;SDS011;36779;52.168;20.878;2023-12-20T06:06:43;31.00;;;10.30;;
50681;SDS011;36779;52.168;20.878;2023-12-20T06:09:34;14.00;;;5.90;;
50681;SDS011;36779;52.168;20.878;2023-12-20T06:12:26;16.60;;;7.60;;
50681;SDS011;36779;52.168;20.878;2023-12-20T06:15:17;16.90;;;7.20;;
50681;SDS011;36779;52.168;20.878;2023-12-20T06:18:12;12.80;;;6.70;;
50681;SDS011;36779;52.168;20.878;2023-12-20T06:21:04;16.10;;;8.50;;
50681;SDS011;36779;52.168;20.878;2023-12-20T06:23:55;13.10;;;6.20;;
50681;SDS011;36779;52.168;20.878;2023-12-20T06:26:46;9.60;;;4.90;;
50681;SDS011;36779;52.168;20.878;2023-12-20T06:29:36;9.90;;;5.20;;
50681;SDS011;36779;52.168;20.878;2023-12-20T06:32:25;9.20;;;4.90;;
50681;SDS011;36779;52.168;20.878;2023-12-20T06:35:17;8.10;;;4.50;;
50681;SDS011;36779;52.168;20.878;2023-12-20T06:38:17;15.00;;;7.00;;
50681;SDS011;36779;52.168;20.878;2023-12-20T06:41:10;7.20;;;3.80;;
50681;SDS011;36779;52.168;20.878;2023-12-20T06:43:52;7.10;;;3.80;;
50681;SDS011;36779;52.168;20.878;2023-12-20T06:46:44;8.40;;;4.50;;
50681;SDS011;36779;52.168;20.878;2023-12-20T06:49:38;12.90;;;6.00;;
50681;SDS011;36779;52.168;20.878;2023-12-20T06:52:30;9.50;;;5.60;;
50681;SDS011;36779;52.168;20.878;2023-12-20T06:55:30;12.30;;;6.30;;
50681;SDS011;36779;52.168;20.878;2023-12-20T06:58:19;9.70;;;5.50;;
50681;SDS011;36779;52.168;20.878;2023-12-20T07:01:11;8.70;;;4.80;;
50681;SDS011;36779;52.168;20.878;2023-12-20T07:04:01;12.80;;;6.20;;
50681;SDS011;36779;52.168;20.878;2023-12-20T07:06:41;15.70;;;7.20;;
50681;SDS011;36779;52.168;20.878;2023-12-20T07:09:10;12.20;;;5.60;;
50681;SDS011;36779;52.168;20.878;2023-12-20T07:12:01;13.00;;;6.70;;
50681;SDS011;36779;52.168;20.878;2023-12-20T07:14:52;10.80;;;5.70;;
50681;SDS011;36779;52.168;20.878;2023-12-20T07:31:28;11.20;;;7.80;;
50681;SDS011;36779;52.168;20.878;2023-12-20T07:34:23;11.30;;;6.90;;
50681;SDS011;36779;52.168;20.878;2023-12-20T07:37:18;8.40;;;5.20;;
50681;SDS011;36779;52.168;20.878;2023-12-20T07:40:11;7.20;;;4.70;;
50681;SDS011;36779;52.168;20.878;2023-12-20T07:43:00;9.60;;;4.60;;
50681;SDS011;36779;52.168;20.878;2023-12-20T07:46:01;9.30;;;4.70;;
50681;SDS011;36779;52.168;20.878;2023-12-20T07:48:58;11.40;;;5.20;;
50681;SDS011;36779;52.168;20.878;2023-12-20T07:51:50;8.40;;;4.70;;
50681;SDS011;36779;52.168;20.878;2023-12-20T07:54:44;9.00;;;4.10;;
50681;SDS011;36779;52.168;20.878;2023-12-20T07:57:35;7.10;;;3.70;;
50681;SDS011;36779;52.168;20.878;2023-12-20T08:00:09;9.20;;;4.00;;
50681;SDS011;36779;52.168;20.878;2023-12-20T08:03:29;8.30;;;3.50;;
50681;SDS011;36779;52.168;20.878;2023-12-20T08:06:26;7.30;;;3.60;;
50681;SDS011;36779;52.168;20.878;2023-12-20T08:09:18;5.20;;;3.00;;
50681;SDS011;36779;52.168;20.878;2023-12-20T08:12:12;6.60;;;3.10;;
50681;SDS011;36779;52.168;20.878;2023-12-20T08:15:07;5.60;;;3.10;;
50681;SDS011;36779;52.168;20.878;2023-12-20T08:18:01;5.20;;;3.20;;
50681;SDS011;36779;52.168;20.878;2023-12-20T08:20:50;5.90;;;3.20;;
50681;SDS011;36779;52.168;20.878;2023-12-20T08:23:44;6.10;;;2.90;;
50681;SDS011;36779;52.168;20.878;2023-12-20T08:26:38;5.90;;;3.10;;
50681;SDS011;36779;52.168;20.878;2023-12-20T08:29:32;7.20;;;2.90;;
50681;SDS011;36779;52.168;20.878;2023-12-20T08:32:26;7.00;;;3.00;;
50681;SDS011;36779;52.168;20.878;2023-12-20T08:35:24;6.90;;;3.60;;
50681;SDS011;36779;52.168;20.878;2023-12-20T08:38:20;6.60;;;2.90;;
50681;SDS011;36779;52.168;20.878;2023-12-20T08:41:14;11.00;;;4.40;;
50681;SDS011;36779;52.168;20.878;2023-12-20T08:44:10;8.10;;;4.30;;
50681;SDS011;36779;52.168;20.878;2023-12-20T08:47:08;5.50;;;3.10;;
50681;SDS011;36779;52.168;20.878;2023-12-20T08:50:03;6.30;;;3.20;;
50681;SDS011;36779;52.168;20.878;2023-12-20T08:52:58;7.10;;;3.20;;
50681;SDS011;36779;52.168;20.878;2023-12-20T08:55:59;8.30;;;4.30;;
50681;SDS011;36779;52.168;20.878;2023-12-20T08:59:12;6.70;;;3.10;;
50681;SDS011;36779;52.168;20.878;2023-12-20T09:02:09;8.40;;;3.40;;
50681;SDS011;36779;52.168;20.878;2023-12-20T09:05:02;7.40;;;3.30;;
50681;SDS011;36779;52.168;20.878;2023-12-20T09:07:59;7.70;;;3.70;;
50681;SDS011;36779;52.168;20.878;2023-12-20T09:11:03;8.60;;;3.60;;
50681;SDS011;36779;52.168;20.878;2023-12-20T09:14:00;18.00;;;7.20;;
50681;SDS011;36779;52.168;20.878;2023-12-20T09:16:54;30.70;;;15.70;;
50681;SDS011;36779;52.168;20.878;2023-12-20T09:19:54;24.30;;;13.90;;
50681;SDS011;36779;52.168;20.878;2023-12-20T09:22:50;25.50;;;13.40;;
50681;SDS011;36779;52.168;20.878;2023-12-20T09:25:43;34.60;;;20.90;;
50681;SDS011;36779;52.168;20.878;2023-12-20T09:28:37;27.50;;;14.20;;
50681;SDS011;36779;52.168;20.878;2023-12-20T09:31:34;19.90;;;11.10;;
50681;SDS011;36779;52.168;20.878;2023-12-20T09:34:40;7.30;;;4.80;;
50681;SDS011;36779;52.168;20.878;2023-12-20T09:37:25;7.00;;;3.50;;
50681;SDS011;36779;52.168;20.878;2023-12-20T09:40:22;5.80;;;3.30;;
50681;SDS011;36779;52.168;20.878;2023-12-20T09:43:28;10.10;;;3.40;;
50681;SDS011;36779;52.168;20.878;2023-12-20T09:46:16;8.90;;;4.30;;
50681;SDS011;36779;52.168;20.878;2023-12-20T09:49:00;13.50;;;5.40;;
50681;SDS011;36779;52.168;20.878;2023-12-20T09:51:54;16.50;;;6.30;;
50681;SDS011;36779;52.168;20.878;2023-12-20T09:54:48;11.70;;;4.10;;
50681;SDS011;36779;52.168;20.878;2023-12-20T09:57:45;19.30;;;7.80;;
50681;SDS011;36779;52.168;20.878;2023-12-20T10:00:40;16.30;;;7.00;;
50681;SDS011;36779;52.168;20.878;2023-12-20T10:03:35;25.70;;;13.20;;
50681;SDS011;36779;52.168;20.878;2023-12-20T10:06:21;18.60;;;6.60;;
50681;SDS011;36779;52.168;20.878;2023-12-20T10:09:14;13.40;;;7.10;;
50681;SDS011;36779;52.168;20.878;2023-12-20T10:12:08;9.50;;;5.80;;
50681;SDS011;36779;52.168;20.878;2023-12-20T10:15:04;10.80;;;6.40;;
50681;SDS011;36779;52.168;20.878;2023-12-20T10:18:00;10.50;;;5.20;;
50681;SDS011;36779;52.168;20.878;2023-12-20T10:20:56;20.10;;;9.50;;
50681;SDS011;36779;52.168;20.878;2023-12-20T10:23:50;17.90;;;8.00;;
50681;SDS011;36779;52.168;20.878;2023-12-20T10:26:43;6.60;;;4.20;;
50681;SDS011;36779;52.168;20.878;2023-12-20T10:29:32;5.20;;;2.90;;
50681;SDS011;36779;52.168;20.878;2023-12-20T10:32:28;8.50;;;4.80;;
50681;SDS011;36779;52.168;20.878;2023-12-20T10:35:31;7.90;;;3.60;;
50681;SDS011;36779;52.168;20.878;2023-12-20T10:38:24;6.90;;;3.70;;
50681;SDS011;36779;52.168;20.878;2023-12-20T10:41:15;9.10;;;5.00;;
50681;SDS011;36779;52.168;20.878;2023-12-20T10:44:09;6.40;;;3.80;;
50681;SDS011;36779;52.168;20.878;2023-12-20T10:50:25;6.40;;;3.50;;
50681;SDS011;36779;52.168;20.878;2023-12-20T10:53:41;3.60;;;2.40;;
50681;SDS011;36779;52.168;20.878;2023-12-20T10:56:40;5.80;;;3.70;;
50681;SDS011;36779;52.168;20.878;2023-12-20T10:59:36;4.80;;;3.00;;
50681;SDS011;36779;52.168;20.878;2023-12-20T11:02:25;6.40;;;3.20;;
50681;SDS011;36779;52.168;20.878;2023-12-20T11:05:24;9.10;;;5.50;;
50681;SDS011;36779;52.168;20.878;2023-12-20T11:08:28;6.80;;;4.10;;
50681;SDS011;36779;52.168;20.878;2023-12-20T11:11:28;8.60;;;4.90;;
50681;SDS011;36779;52.168;20.878;2023-12-20T11:14:27;13.20;;;6.20;;
50681;SDS011;36779;52.168;20.878;2023-12-20T11:17:26;9.10;;;4.40;;
50681;SDS011;36779;52.168;20.878;2023-12-20T11:20:21;5.90;;;3.10;;
50681;SDS011;36779;52.168;20.878;2023-12-20T11:25:02;8.40;;;5.50;;
50681;SDS011;36779;52.168;20.878;2023-12-20T11:27:41;7.20;;;4.60;;
50681;SDS011;36779;52.168;20.878;2023-12-20T11:30:42;7.80;;;3.90;;
50681;SDS011;36779;52.168;20.878;2023-12-20T11:33:38;10.80;;;6.30;;
50681;SDS011;36779;52.168;20.878;2023-12-20T11:36:32;5.80;;;3.60;;
50681;SDS011;36779;52.168;20.878;2023-12-20T11:39:26;9.70;;;4.40;;
50681;SDS011;36779;52.168;20.878;2023-12-20T11:42:23;7.60;;;4.90;;
50681;SDS011;36779;52.168;20.878;2023-12-20T11:45:16;7.50;;;4.00;;
50681;SDS011;36779;52.168;20.878;2023-12-20T11:48:12;10.70;;;4.80;;
50681;SDS011;36779;52.168;20.878;2023-12-20T11:51:15;7.60;;;4.40;;
50681;SDS011;36779;52.168;20.878;2023-12-20T11:54:02;8.80;;;4.90;;
50681;SDS011;36779;52.168;20.878;2023-12-20T11:59:59;5.90;;;3.30;;
50681;SDS011;36779;52.168;20.878;2023-12-20T12:02:56;4.80;;;2.70;;
50681;SDS011;36779;52.168;20.878;2023-12-20T12:05:44;7.00;;;3.70;;
50681;SDS011;36779;52.168;20.878;2023-12-20T12:08:20;4.40;;;2.50;;
50681;SDS011;36779;52.168;20.878;2023-12-20T12:11:14;5.20;;;3.00;;
50681;SDS011;36779;52.168;20.878;2023-12-20T12:14:06;6.80;;;3.10;;
50681;SDS011;36779;52.168;20.878;2023-12-20T12:17:17;6.20;;;3.00;;
50681;SDS011;36779;52.168;20.878;2023-12-20T12:19:50;6.60;;;3.00;;
50681;SDS011;36779;52.168;20.878;2023-12-20T12:22:58;5.90;;;2.40;;
50681;SDS011;36779;52.168;20.878;2023-12-20T12:25:48;5.40;;;2.80;;
50681;SDS011;36779;52.168;20.878;2023-12-20T12:28:27;4.40;;;2.50;;
50681;SDS011;36779;52.168;20.878;2023-12-20T12:31:02;7.50;;;3.40;;
50681;SDS011;36779;52.168;20.878;2023-12-20T12:33:57;6.70;;;3.10;;
50681;SDS011;36779;52.168;20.878;2023-12-20T12:36:45;6.00;;;3.30;;
50681;SDS011;36779;52.168;20.878;2023-12-20T12:39:39;7.00;;;3.10;;
50681;SDS011;36779;52.168;20.878;2023-12-20T12:42:34;6.60;;;2.90;;
50681;SDS011;36779;52.168;20.878;2023-12-20T12:45:18;7.30;;;3.40;;
50681;SDS011;36779;52.168;20.878;2023-12-20T12:48:03;8.40;;;3.80;;
50681;SDS011;36779;52.168;20.878;2023-12-20T12:51:00;7.10;;;4.00;;
50681;SDS011;36779;52.168;20.878;2023-12-20T12:54:02;8.80;;;4.60;;
50681;SDS011;36779;52.168;20.878;2023-12-20T12:56:57;6.80;;;3.70;;
50681;SDS011;36779;52.168;20.878;2023-12-20T13:00:06;9.10;;;3.80;;
50681;SDS011;36779;52.168;20.878;2023-12-20T13:03:33;9.50;;;4.10;;
50681;SDS011;36779;52.168;20.878;2023-12-20T13:06:29;9.80;;;3.50;;
50681;SDS011;36779;52.168;20.878;2023-12-20T13:09:23;9.80;;;3.60;;
50681;SDS011;36779;52.168;20.878;2023-12-20T13:12:16;18.50;;;6.90;;
50681;SDS011;36779;52.168;20.878;2023-12-20T13:15:11;9.60;;;4.30;;
50681;SDS011;36779;52.168;20.878;2023-12-20T13:18:04;9.10;;;4.50;;
50681;SDS011;36779;52.168;20.878;2023-12-20T13:23:51;13.30;;;4.80;;
50681;SDS011;36779;52.168;20.878;2023-12-20T13:26:44;10.90;;;4.80;;
50681;SDS011;36779;52.168;20.878;2023-12-20T13:29:42;8.50;;;4.20;;
50681;SDS011;36779;52.168;20.878;2023-12-20T13:32:37;12.60;;;4.20;;
50681;SDS011;36779;52.168;20.878;2023-12-20T13:35:33;14.50;;;5.60;;
50681;SDS011;36779;52.168;20.878;2023-12-20T13:38:26;10.70;;;4.20;;
50681;SDS011;36779;52.168;20.878;2023-12-20T13:41:11;8.40;;;3.90;;
50681;SDS011;36779;52.168;20.878;2023-12-20T13:44:06;8.90;;;4.10;;
50681;SDS011;36779;52.168;20.878;2023-12-20T13:46:52;5.90;;;3.60;;
50681;SDS011;36779;52.168;20.878;2023-12-20T13:49:45;7.10;;;3.30;;
50681;SDS011;36779;52.168;20.878;2023-12-20T13:52:38;9.70;;;3.30;;
50681;SDS011;36779;52.168;20.878;2023-12-20T13:55:47;7.50;;;3.30;;
50681;SDS011;36779;52.168;20.878;2023-12-20T13:59:03;9.70;;;3.60;;
50681;SDS011;36779;52.168;20.878;2023-12-20T14:01:49;7.40;;;3.50;;
50681;SDS011;36779;52.168;20.878;2023-12-20T14:04:46;9.90;;;4.10;;
50681;SDS011;36779;52.168;20.878;2023-12-20T14:07:35;8.60;;;4.70;;
50681;SDS011;36779;52.168;20.878;2023-12-20T14:10:29;8.40;;;3.80;;
50681;SDS011;36779;52.168;20.878;2023-12-20T14:13:51;7.10;;;3.60;;
50681;SDS011;36779;52.168;20.878;2023-12-20T14:16:41;7.70;;;3.40;;
50681;SDS011;36779;52.168;20.878;2023-12-20T14:22:55;11.50;;;5.20;;
50681;SDS011;36779;52.168;20.878;2023-12-20T14:25:38;10.60;;;5.10;;
50681;SDS011;36779;52.168;20.878;2023-12-20T14:28:41;6.80;;;3.90;;
50681;SDS011;36779;52.168;20.878;2023-12-20T14:31:42;6.70;;;3.30;;
50681;SDS011;36779;52.168;20.878;2023-12-20T14:34:28;5.30;;;3.10;;
50681;SDS011;36779;52.168;20.878;2023-12-20T14:37:24;10.40;;;4.50;;
50681;SDS011;36779;52.168;20.878;2023-12-20T14:40:18;8.40;;;3.50;;
50681;SDS011;36779;52.168;20.878;2023-12-20T14:43:25;8.90;;;4.10;;
50681;SDS011;36779;52.168;20.878;2023-12-20T14:46:22;21.40;;;10.50;;
50681;SDS011;36779;52.168;20.878;2023-12-20T14:49:17;11.80;;;4.70;;
50681;SDS011;36779;52.168;20.878;2023-12-20T14:52:09;9.10;;;4.50;;
50681;SDS011;36779;52.168;20.878;2023-12-20T14:55:03;10.60;;;4.00;;
50681;SDS011;36779;52.168;20.878;2023-12-20T14:58:00;14.20;;;6.60;;
50681;SDS011;36779;52.168;20.878;2023-12-20T15:00:45;7.90;;;4.50;;
50681;SDS011;36779;52.168;20.878;2023-12-20T15:03:38;7.40;;;3.60;;
50681;SDS011;36779;52.168;20.878;2023-12-20T15:06:33;7.50;;;3.20;;
50681;SDS011;36779;52.168;20.878;2023-12-20T15:09:15;7.20;;;3.00;;
50681;SDS011;36779;52.168;20.878;2023-12-20T15:12:18;8.30;;;4.20;;
50681;SDS011;36779;52.168;20.878;2023-12-20T15:15:10;7.30;;;3.70;;
50681;SDS011;36779;52.168;20.878;2023-12-20T15:17:43;6.30;;;3.20;;
50681;SDS011;36779;52.168;20.878;2023-12-20T15:24:22;7.80;;;4.00;;
50681;SDS011;36779;52.168;20.878;2023-12-20T15:27:18;6.50;;;3.10;;
50681;SDS011;36779;52.168;20.878;2023-12-20T15:30:14;10.10;;;3.70;;
50681;SDS011;36779;52.168;20.878;2023-12-20T15:33:08;11.80;;;3.20;;
50681;SDS011;36779;52.168;20.878;2023-12-20T15:35:45;7.80;;;3.20;;
50681;SDS011;36779;52.168;20.878;2023-12-20T15:38:38;6.70;;;3.60;;
50681;SDS011;36779;52.168;20.878;2023-12-20T15:41:10;5.90;;;2.90;;
50681;SDS011;36779;52.168;20.878;2023-12-20T15:43:50;8.80;;;3.30;;
50681;SDS011;36779;52.168;20.878;2023-12-20T15:46:25;9.00;;;3.40;;
50681;SDS011;36779;52.168;20.878;2023-12-20T15:49:18;7.90;;;3.00;;
50681;SDS011;36779;52.168;20.878;2023-12-20T15:52:02;6.60;;;3.00;;
50681;SDS011;36779;52.168;20.878;2023-12-20T15:55:02;6.80;;;2.80;;
50681;SDS011;36779;52.168;20.878;2023-12-20T15:57:58;6.30;;;3.20;;
50681;SDS011;36779;52.168;20.878;2023-12-20T16:00:52;7.70;;;3.50;;
50681;SDS011;36779;52.168;20.878;2023-12-20T16:03:37;7.90;;;3.30;;
50681;SDS011;36779;52.168;20.878;2023-12-20T16:06:39;31.00;;;10.30;;
50681;SDS011;36779;52.168;20.878;2023-12-20T16:09:14;36.40;;;12.20;;
50681;SDS011;36779;52.168;20.878;2023-12-20T16:12:00;24.50;;;8.00;;
50681;SDS011;36779;52.168;20.878;2023-12-20T16:14:57;18.00;;;7.10;;
50681;SDS011;36779;52.168;20.878;2023-12-20T16:17:41;18.10;;;6.60;;
50681;SDS011;36779;52.168;20.878;2023-12-20T16:20:15;23.50;;;9.20;;
50681;SDS011;36779;52.168;20.878;2023-12-20T16:23:15;29.70;;;11.00;;
50681;SDS011;36779;52.168;20.878;2023-12-20T16:25:52;14.50;;;6.50;;
50681;SDS011;36779;52.168;20.878;2023-12-20T16:28:46;9.70;;;5.00;;
50681;SDS011;36779;52.168;20.878;2023-12-20T16:31:45;8.20;;;4.70;;
50681;SDS011;36779;52.168;20.878;2023-12-20T16:34:47;13.80;;;4.00;;
50681;SDS011;36779;52.168;20.878;2023-12-20T16:37:45;8.00;;;3.30;;
50681;SDS011;36779;52.168;20.878;2023-12-20T16:40:30;10.20;;;3.90;;
50681;SDS011;36779;52.168;20.878;2023-12-20T16:43:05;13.30;;;5.60;;
50681;SDS011;36779;52.168;20.878;2023-12-20T16:45:54;16.50;;;6.00;;
50681;SDS011;36779;52.168;20.878;2023-12-20T16:48:37;11.70;;;4.60;;
50681;SDS011;36779;52.168;20.878;2023-12-20T16:51:26;10.40;;;4.50;;
50681;SDS011;36779;52.168;20.878;2023-12-20T16:54:20;7.80;;;3.40;;
50681;SDS011;36779;52.168;20.878;2023-12-20T16:57:01;8.60;;;3.20;;
50681;SDS011;36779;52.168;20.878;2023-12-20T16:59:54;6.80;;;3.90;;
50681;SDS011;36779;52.168;20.878;2023-12-20T17:02:54;14.70;;;4.70;;
50681;SDS011;36779;52.168;20.878;2023-12-20T17:05:40;7.60;;;4.10;;
50681;SDS011;36779;52.168;20.878;2023-12-20T17:08:14;7.00;;;3.00;;
50681;SDS011;36779;52.168;20.878;2023-12-20T17:11:12;10.20;;;3.10;;
50681;SDS011;36779;52.168;20.878;2023-12-20T17:14:09;13.20;;;4.00;;
50681;SDS011;36779;52.168;20.878;2023-12-20T17:17:04;11.60;;;5.50;;
50681;SDS011;36779;52.168;20.878;2023-12-20T17:20:00;11.10;;;4.80;;
50681;SDS011;36779;52.168;20.878;2023-12-20T17:23:23;13.00;;;6.60;;
50681;SDS011;36779;52.168;20.878;2023-12-20T17:26:22;9.90;;;4.00;;
50681;SDS011;36779;52.168;20.878;2023-12-20T17:29:15;11.30;;;4.00;;
50681;SDS011;36779;52.168;20.878;2023-12-20T17:32:29;9.60;;;3.70;;
50681;SDS011;36779;52.168;20.878;2023-12-20T17:36:46;10.10;;;4.00;;
50681;SDS011;36779;52.168;20.878;2023-12-20T17:44:43;17.30;;;6.10;;
50681;SDS011;36779;52.168;20.878;2023-12-20T17:47:39;26.50;;;9.70;;